createdAt,value
2019-03-17T09:26:49.171Z,21.60
2019-03-17T09:29:19.022Z,21.70
2019-03-17T09:31:48.325Z,21.80
2019-03-17T09:34:17.790Z,21.80
2019-03-17T09:36:47.937Z,21.90
2019-03-17T09:39:17.078Z,21.90
2019-03-17T09:41:46.305Z,21.90
2019-03-17T09:44:15.393Z,22.10
2019-03-17T09:46:44.578Z,22.20
2019-03-17T09:49:13.692Z,22.20
2019-03-17T09:51:42.773Z,22.30
2019-03-17T09:54:11.961Z,22.40
2019-03-17T09:56:41.298Z,22.40
2019-03-17T09:59:10.509Z,22.50
2019-03-17T10:01:39.727Z,22.50
2019-03-17T10:04:09.174Z,22.50
2019-03-17T10:06:38.301Z,22.50
2019-03-17T10:09:08.297Z,22.60
2019-03-17T10:11:37.405Z,22.60
2019-03-17T10:14:06.565Z,22.70
2019-03-17T10:16:35.694Z,22.70
2019-03-17T10:19:04.823Z,22.80
2019-03-17T10:21:34.068Z,22.80
2019-03-17T10:24:03.168Z,22.90
2019-03-17T10:26:32.277Z,22.90
2019-03-17T10:29:01.412Z,22.90
2019-03-17T10:31:30.578Z,22.90
2019-03-17T10:33:59.718Z,22.90
2019-03-17T10:36:30.858Z,23.00
2019-03-17T10:39:11.674Z,23.00
2019-03-17T10:41:30.779Z,23.00
2019-03-17T10:43:59.940Z,23.00
2019-03-17T10:46:30.136Z,23.10
2019-03-17T10:48:59.281Z,23.10
2019-03-17T10:51:28.400Z,23.10
2019-03-17T10:53:57.497Z,23.10
2019-03-17T10:56:27.744Z,23.10
2019-03-17T10:58:56.891Z,23.20
2019-03-17T11:01:26.054Z,23.10
2019-03-17T11:03:55.517Z,23.10
2019-03-17T11:06:24.629Z,23.10
2019-03-17T11:08:53.724Z,23.10
2019-03-17T11:11:22.994Z,23.10
2019-03-17T11:13:53.338Z,23.10
2019-03-17T11:16:22.477Z,23.10
2019-03-17T11:18:51.565Z,23.10
2019-03-17T11:21:20.757Z,23.10
2019-03-17T11:23:49.849Z,23.10
2019-03-17T11:26:19.006Z,23.10
2019-03-17T11:28:48.150Z,23.10
2019-03-17T11:31:17.307Z,23.10
2019-03-17T11:33:46.526Z,23.10
2019-03-17T11:36:15.674Z,23.10
2019-03-17T11:38:45.069Z,23.10
2019-03-17T11:41:14.187Z,23.10
2019-03-17T11:43:43.349Z,23.00
2019-03-17T11:46:12.686Z,23.00
2019-03-17T11:48:41.920Z,22.90
2019-03-17T11:51:11.038Z,22.80
2019-03-17T11:53:40.144Z,22.70
2019-03-17T11:56:09.240Z,22.70
2019-03-17T11:58:38.694Z,22.70
2019-03-17T12:01:07.865Z,22.70
2019-03-17T12:03:37.043Z,22.60
2019-03-17T12:06:06.152Z,22.60
2019-03-17T12:08:35.233Z,22.60
2019-03-17T12:11:04.360Z,22.60
2019-03-17T12:13:33.508Z,22.60
2019-03-17T12:16:03.182Z,22.60
2019-03-17T12:18:32.284Z,22.60
2019-03-17T12:21:01.685Z,22.60
2019-03-17T12:23:30.890Z,22.60
2019-03-17T12:25:59.977Z,22.60
2019-03-17T12:28:29.480Z,22.60
2019-03-17T12:30:58.621Z,22.60
2019-03-17T12:33:27.728Z,22.50
2019-03-17T12:35:56.840Z,22.60
2019-03-17T12:38:26.046Z,22.50
2019-03-17T12:40:55.231Z,22.50
2019-03-17T12:43:24.410Z,22.50
2019-03-17T12:45:53.589Z,22.50
2019-03-17T12:48:22.729Z,22.50
2019-03-17T12:50:51.844Z,22.40
2019-03-17T12:53:20.981Z,22.40
2019-03-17T12:55:50.090Z,22.50
2019-03-17T12:58:19.568Z,22.50
2019-03-17T13:00:48.736Z,22.50
2019-03-17T13:03:17.859Z,22.50
2019-03-17T13:05:47.225Z,22.40
2019-03-17T13:08:16.689Z,22.50
2019-03-17T13:10:46.345Z,22.50
2019-03-17T13:13:15.467Z,22.40
2019-03-17T13:15:44.547Z,22.50
2019-03-17T13:18:13.809Z,22.50
2019-03-17T13:20:42.892Z,22.50
2019-03-17T13:23:12.018Z,22.50
2019-03-17T13:25:41.100Z,22.40
2019-03-17T13:28:10.189Z,22.50
2019-03-17T13:30:39.344Z,22.50
2019-03-17T13:33:08.547Z,22.40
2019-03-17T13:35:37.622Z,22.40
2019-03-17T13:38:07.362Z,22.50
2019-03-17T13:40:36.464Z,22.40
2019-03-17T13:43:05.538Z,22.40
2019-03-17T13:45:34.677Z,22.40
2019-03-17T13:48:03.741Z,22.40
2019-03-17T13:50:32.889Z,22.40
2019-03-17T13:53:02.023Z,22.40
2019-03-17T13:55:31.146Z,22.40
2019-03-17T13:58:00.356Z,22.40
2019-03-17T14:00:29.857Z,22.50
2019-03-17T14:02:59.049Z,22.50
2019-03-17T14:05:28.185Z,22.50
2019-03-17T14:07:57.412Z,22.60
2019-03-17T14:10:26.538Z,22.60
2019-03-17T14:12:55.833Z,22.70
2019-03-17T14:15:24.950Z,22.70
2019-03-17T14:17:54.206Z,22.80
2019-03-17T14:20:23.418Z,22.70
2019-03-17T14:22:52.788Z,22.80
2019-03-17T14:25:24.168Z,22.80
2019-03-17T14:27:53.634Z,22.80
2019-03-17T14:30:22.856Z,22.90
2019-03-17T14:32:51.966Z,22.90
2019-03-17T14:35:21.760Z,23.00
2019-03-17T14:37:51.651Z,23.30
2019-03-17T14:40:20.790Z,23.60
2019-03-17T14:42:50.705Z,23.50
2019-03-17T14:45:19.953Z,23.60
2019-03-17T14:47:49.600Z,23.90
2019-03-17T14:50:18.923Z,24.00
2019-03-17T14:52:48.198Z,23.90
2019-03-17T14:55:17.353Z,23.80
2019-03-17T14:57:46.455Z,23.60
2019-03-17T15:00:17.555Z,23.60
2019-03-17T15:02:46.909Z,23.40
2019-03-17T15:05:16.106Z,23.40
2019-03-17T15:07:45.422Z,23.60
2019-03-17T15:10:15.941Z,23.70
2019-03-17T15:12:45.170Z,23.70
2019-03-17T15:15:15.089Z,23.50
2019-03-17T15:17:44.671Z,23.50
2019-03-17T15:20:15.476Z,23.90
2019-03-17T15:22:44.757Z,24.20
2019-03-17T15:25:13.948Z,24.50
2019-03-17T15:27:43.080Z,25.00
2019-03-17T15:30:17.596Z,25.50
2019-03-17T15:32:46.923Z,25.60
2019-03-17T15:35:16.226Z,25.40
2019-03-17T15:37:46.019Z,25.10
2019-03-17T15:40:15.287Z,25.00
2019-03-17T15:42:44.698Z,24.90
2019-03-17T15:45:15.129Z,24.70
2019-03-17T15:47:44.257Z,24.40
2019-03-17T15:50:14.928Z,24.20
2019-03-17T15:52:44.157Z,23.90
2019-03-17T15:55:13.464Z,23.80
2019-03-17T15:57:42.978Z,23.70
2019-03-17T16:00:25.121Z,23.60
2019-03-17T16:02:46.617Z,23.50
2019-03-17T16:05:15.997Z,23.40
2019-03-17T16:07:45.254Z,23.40
2019-03-17T16:10:15.737Z,23.40
2019-03-17T16:12:44.962Z,23.30
2019-03-17T16:15:14.317Z,23.30
2019-03-17T16:17:43.516Z,23.20
2019-03-17T16:20:15.136Z,23.20
2019-03-17T16:22:44.430Z,23.20
2019-03-17T16:25:14.105Z,23.20
2019-03-17T16:27:43.355Z,23.20
2019-03-17T16:30:16.002Z,23.10
2019-03-17T16:32:45.322Z,23.10
2019-03-17T16:35:14.584Z,23.10
2019-03-17T16:37:45.251Z,23.00
2019-03-17T16:40:15.710Z,23.00
2019-03-17T16:42:44.827Z,23.00
2019-03-17T16:45:14.481Z,23.00
2019-03-17T16:47:43.722Z,22.90
2019-03-17T16:50:14.703Z,22.90
2019-03-17T16:52:43.841Z,22.90
2019-03-17T16:55:13.344Z,22.90
2019-03-17T16:57:42.815Z,22.80
2019-03-17T17:00:15.111Z,22.80
2019-03-17T17:02:44.364Z,22.80
2019-03-17T17:05:13.597Z,22.80
2019-03-17T17:07:42.815Z,22.80
2019-03-17T17:10:13.476Z,22.70
2019-03-17T17:12:42.591Z,22.70
2019-03-17T17:15:14.240Z,22.70
2019-03-17T17:17:43.377Z,22.70
2019-03-17T17:20:14.758Z,22.70
2019-03-17T17:22:44.042Z,22.70
2019-03-17T17:25:13.220Z,22.70
2019-03-17T17:27:42.634Z,22.60
2019-03-17T17:30:13.409Z,22.60
2019-03-17T17:32:42.574Z,22.60
2019-03-17T17:35:11.788Z,22.60
2019-03-17T17:37:40.965Z,22.60
2019-03-17T17:40:11.909Z,22.60
2019-03-17T17:42:41.161Z,22.50
2019-03-17T17:45:12.908Z,22.50
2019-03-17T17:47:41.995Z,22.50
2019-03-17T17:50:12.605Z,22.50
2019-03-17T17:52:42.050Z,22.50
2019-03-17T17:55:11.168Z,22.50
2019-03-17T17:57:40.280Z,22.50
2019-03-17T18:00:11.345Z,22.50
2019-03-17T18:02:40.481Z,22.50
2019-03-17T18:05:09.748Z,22.50
2019-03-17T18:07:40.010Z,22.50
2019-03-17T18:10:09.277Z,22.60
2019-03-17T18:12:38.564Z,22.60
2019-03-17T18:15:09.324Z,22.60
2019-03-17T18:17:38.488Z,22.60
2019-03-17T18:20:08.625Z,22.60
2019-03-17T18:22:37.685Z,22.60
2019-03-17T18:25:08.061Z,22.60
2019-03-17T18:27:37.208Z,22.60
2019-03-17T18:30:07.434Z,22.70
2019-03-17T18:32:38.328Z,22.70
2019-03-17T18:35:07.509Z,22.80
2019-03-17T18:37:36.686Z,22.70
2019-03-17T18:40:06.627Z,22.80
2019-03-17T18:42:36.168Z,22.70
2019-03-17T18:45:06.175Z,22.80
2019-03-17T18:47:35.454Z,22.90
2019-03-17T18:50:05.043Z,22.80
2019-03-17T18:52:34.568Z,22.90
2019-03-17T18:55:03.744Z,22.80
2019-03-17T18:57:32.929Z,22.80
2019-03-17T19:00:04.333Z,22.80
2019-03-17T19:02:33.020Z,22.80
2019-03-17T19:05:02.498Z,22.80
2019-03-17T19:07:31.644Z,22.80
2019-03-17T19:10:01.264Z,22.80
2019-03-17T19:12:30.467Z,22.80
2019-03-17T19:14:59.661Z,22.80
2019-03-17T19:17:28.789Z,22.90
2019-03-17T19:19:58.264Z,22.90
2019-03-17T19:22:27.369Z,22.80
2019-03-17T19:24:57.940Z,22.80
2019-03-17T19:27:27.218Z,22.70
2019-03-17T19:29:56.389Z,22.60
2019-03-17T19:32:25.540Z,22.50
2019-03-17T19:34:54.672Z,22.50
2019-03-17T19:37:23.795Z,22.60
2019-03-17T19:39:53.038Z,22.60
